createdAt,value
2018-09-19T00:00:43.595Z,98521.70
2018-09-19T00:03:11.970Z,98521.34
2018-09-19T00:05:40.255Z,98518.84
2018-09-19T00:08:09.032Z,98514.92
2018-09-19T00:10:37.307Z,98517.23
2018-09-19T00:13:05.605Z,98525.62
2018-09-19T00:15:34.066Z,98514.55
2018-09-19T00:18:02.352Z,98528.20
2018-09-19T00:20:30.777Z,98522.33
2018-09-19T00:22:59.134Z,98523.13
2018-09-19T00:25:27.574Z,98524.72
2018-09-19T00:27:56.022Z,98526.26
2018-09-19T00:30:24.363Z,98529.22
2018-09-19T00:32:52.674Z,98528.16
2018-09-19T00:35:21.301Z,98530.44
2018-09-19T00:37:49.716Z,98528.08
2018-09-19T00:40:18.040Z,98531.07
2018-09-19T00:42:46.350Z,98526.64
2018-09-19T00:45:14.880Z,98533.45
2018-09-19T00:47:43.217Z,98533.30
2018-09-19T00:50:11.706Z,98528.25
2018-09-19T00:52:40.070Z,98536.00
2018-09-19T00:55:09.002Z,98539.78
2018-09-19T00:57:37.562Z,98541.78
2018-09-19T01:00:05.928Z,98543.64
2018-09-19T01:02:34.224Z,98538.25
2018-09-19T01:05:02.537Z,98534.17
2018-09-19T01:07:30.828Z,98530.49
2018-09-19T01:09:59.329Z,98535.23
2018-09-19T01:12:27.736Z,98526.50
2018-09-19T01:14:56.217Z,98526.69
2018-09-19T01:17:24.687Z,98522.52
2018-09-19T01:19:53.002Z,98525.20
2018-09-19T01:22:21.350Z,98525.14
2018-09-19T01:24:49.828Z,98523.44
2018-09-19T01:27:18.224Z,98528.15
2018-09-19T01:29:46.567Z,98534.26
2018-09-19T01:32:15.019Z,98528.32
2018-09-19T01:34:43.365Z,98531.48
2018-09-19T01:37:11.742Z,98534.72
2018-09-19T01:39:40.094Z,98539.56
2018-09-19T01:42:08.511Z,98546.50
2018-09-19T01:44:36.930Z,98545.33
2018-09-19T01:47:05.295Z,98555.13
2018-09-19T01:49:33.715Z,98543.77
2018-09-19T01:52:02.078Z,98544.84
2018-09-19T01:54:30.418Z,98544.13
2018-09-19T01:56:58.742Z,98552.48
2018-09-19T01:59:27.076Z,98559.63
2018-09-19T02:01:55.383Z,98559.17
2018-09-19T02:04:23.717Z,98562.02
2018-09-19T02:06:52.614Z,98558.00
2018-09-19T02:09:21.007Z,98559.63
2018-09-19T02:11:49.531Z,98562.94
2018-09-19T02:14:18.450Z,98562.98
2018-09-19T02:16:46.774Z,98562.47
2018-09-19T02:19:15.168Z,98565.97
2018-09-19T02:21:43.409Z,98568.61
2018-09-19T02:24:11.725Z,98565.48
2018-09-19T02:26:40.075Z,98570.91
2018-09-19T02:29:08.435Z,98570.42
2018-09-19T02:31:36.772Z,98566.30
2018-09-19T02:34:05.164Z,98564.45
2018-09-19T02:36:33.554Z,98562.30
2018-09-19T02:39:01.875Z,98570.09
2018-09-19T02:41:30.173Z,98568.45
2018-09-19T02:43:58.499Z,98567.99
2018-09-19T02:46:26.859Z,98567.55
2018-09-19T02:48:55.204Z,98574.41
2018-09-19T02:51:23.691Z,98579.22
2018-09-19T02:53:51.984Z,98578.45
2018-09-19T02:56:20.438Z,98571.95
2018-09-19T02:58:48.759Z,98575.47
2018-09-19T03:01:17.167Z,98580.98
2018-09-19T03:03:45.424Z,98575.41
2018-09-19T03:06:13.775Z,98575.55
2018-09-19T03:08:42.187Z,98575.13
2018-09-19T03:11:10.521Z,98589.16
2018-09-19T03:13:38.860Z,98585.77
2018-09-19T03:16:07.241Z,98577.27
2018-09-19T03:18:35.637Z,98583.27
2018-09-19T03:21:03.983Z,98589.22
2018-09-19T03:23:32.952Z,98583.71
2018-09-19T03:26:01.330Z,98589.86
2018-09-19T03:28:29.605Z,98591.34
2018-09-19T03:30:57.884Z,98595.88
2018-09-19T03:33:26.180Z,98600.49
2018-09-19T03:35:54.487Z,98597.39
2018-09-19T03:38:22.805Z,98600.92
2018-09-19T03:40:51.115Z,98598.64
2018-09-19T03:43:19.483Z,98605.39
2018-09-19T03:45:47.945Z,98603.34
2018-09-19T03:48:16.304Z,98599.71
2018-09-19T03:50:44.606Z,98604.36
2018-09-19T03:53:13.101Z,98597.30
2018-09-19T03:55:41.393Z,98605.98
2018-09-19T03:58:09.788Z,98607.16
2018-09-19T04:00:39.118Z,98604.50
2018-09-19T04:03:07.397Z,98606.64
2018-09-19T04:05:35.829Z,98612.82
2018-09-19T04:08:04.171Z,98615.26
2018-09-19T04:10:32.493Z,98611.73
2018-09-19T04:13:00.851Z,98610.27
2018-09-19T04:15:29.334Z,98617.41
2018-09-19T04:17:57.703Z,98614.16
2018-09-19T04:20:26.123Z,98618.88
2018-09-19T04:22:54.464Z,98613.59
2018-09-19T04:25:22.741Z,98613.84
2018-09-19T04:27:51.103Z,98611.79
2018-09-19T04:30:19.453Z,98608.02
2018-09-19T04:32:47.811Z,98615.89
2018-09-19T04:35:16.173Z,98623.08
2018-09-19T04:37:44.505Z,98617.23
2018-09-19T04:40:12.950Z,98617.61
2018-09-19T04:42:41.246Z,98622.37
2018-09-19T04:45:09.726Z,98618.03
2018-09-19T04:47:37.994Z,98621.27
2018-09-19T04:50:06.465Z,98623.22
2018-09-19T04:52:35.441Z,98624.48
2018-09-19T04:55:04.867Z,98623.02
2018-09-19T04:57:33.230Z,98622.64
2018-09-19T05:00:02.145Z,98622.50
2018-09-19T05:02:30.408Z,98618.78
2018-09-19T05:04:58.683Z,98629.22
2018-09-19T05:07:27.094Z,98626.80
2018-09-19T05:09:55.705Z,98633.89
2018-09-19T05:12:24.058Z,98638.17
2018-09-19T05:14:52.437Z,98641.21
2018-09-19T05:17:20.726Z,98648.36
2018-09-19T05:19:49.168Z,98648.48
2018-09-19T05:22:18.174Z,98643.25
2018-09-19T05:24:46.609Z,98645.67
2018-09-19T05:27:16.099Z,98655.39
2018-09-19T05:29:44.717Z,98659.19
2018-09-19T05:32:13.065Z,98658.82
2018-09-19T05:34:41.388Z,98659.06
2018-09-19T05:37:09.859Z,98656.73
2018-09-19T05:39:38.227Z,98655.23
2018-09-19T05:42:06.908Z,98658.76
2018-09-19T05:44:35.347Z,98661.30
2018-09-19T05:47:03.720Z,98665.91
2018-09-19T05:49:32.071Z,98665.31
2018-09-19T05:52:00.392Z,98663.50
2018-09-19T05:54:28.691Z,98662.53
2018-09-19T05:56:57.046Z,98661.45
2018-09-19T05:59:25.341Z,98667.50
2018-09-19T06:01:53.656Z,98664.81
2018-09-19T06:04:21.983Z,98672.44
2018-09-19T06:06:50.418Z,98676.20
2018-09-19T06:09:18.771Z,98679.55
2018-09-19T06:11:47.048Z,98682.89
2018-09-19T06:14:15.376Z,98677.02
2018-09-19T06:16:43.704Z,98670.26
2018-09-19T06:19:11.984Z,98679.36
2018-09-19T06:21:40.793Z,98680.83
2018-09-19T06:24:09.200Z,98674.91
2018-09-19T06:26:37.601Z,98673.89
2018-09-19T06:29:06.252Z,98675.32
2018-09-19T06:31:34.619Z,98677.55
2018-09-19T06:34:02.931Z,98671.27
2018-09-19T06:36:31.303Z,98675.22
2018-09-19T06:38:59.731Z,98681.64
2018-09-19T06:41:28.010Z,98680.63
2018-09-19T06:43:56.313Z,98680.50
2018-09-19T06:46:24.830Z,98685.52
2018-09-19T06:48:53.132Z,98689.75
2018-09-19T06:51:22.622Z,98692.45
2018-09-19T06:53:50.999Z,98697.41
2018-09-19T06:56:19.418Z,98701.87
2018-09-19T06:58:47.765Z,98703.62
2018-09-19T07:01:16.113Z,98703.36
2018-09-19T07:03:44.434Z,98711.72
2018-09-19T07:06:12.687Z,98711.13
2018-09-19T07:08:40.970Z,98716.28
2018-09-19T07:11:09.236Z,98720.33
2018-09-19T07:13:37.682Z,98724.70
2018-09-19T07:16:06.098Z,98728.20
2018-09-19T07:18:34.524Z,98726.53
2018-09-19T07:21:02.974Z,98721.35
2018-09-19T07:23:31.315Z,98726.38
2018-09-19T07:25:59.625Z,98730.99
2018-09-19T07:28:27.987Z,98734.81
2018-09-19T07:30:56.339Z,98728.05
2018-09-19T07:33:24.620Z,98737.92
2018-09-19T07:35:52.895Z,98732.58
2018-09-19T07:38:21.218Z,98740.38
2018-09-19T07:40:49.586Z,98737.05
2018-09-19T07:43:18.010Z,98748.70
2018-09-19T07:45:46.381Z,98752.84
2018-09-19T07:48:14.696Z,98755.69
2018-09-19T07:50:42.988Z,98755.78
2018-09-19T07:53:11.288Z,98758.33
2018-09-19T07:55:39.618Z,98749.91
2018-09-19T07:58:07.917Z,98761.81
2018-09-19T08:00:36.298Z,98756.92
2018-09-19T08:03:04.552Z,98759.41
2018-09-19T08:05:32.876Z,98756.52
2018-09-19T08:08:01.539Z,98754.66
2018-09-19T08:10:29.840Z,98757.86
2018-09-19T08:12:58.134Z,98759.58
2018-09-19T08:15:26.485Z,98756.87
2018-09-19T08:17:54.770Z,98758.39
2018-09-19T08:20:23.044Z,98755.14
2018-09-19T08:22:51.423Z,98750.50
2018-09-19T08:25:19.808Z,98750.38
2018-09-19T08:27:48.107Z,98748.53
2018-09-19T08:30:16.383Z,98747.97
2018-09-19T08:32:44.680Z,98739.75
2018-09-19T08:35:13.181Z,98751.72
2018-09-19T08:37:41.602Z,98746.03
2018-09-19T08:40:13.028Z,98758.16
2018-09-19T08:42:41.287Z,98759.36
2018-09-19T08:45:09.714Z,98763.91
2018-09-19T08:47:37.970Z,98760.39
2018-09-19T08:50:06.354Z,98760.84
2018-09-19T08:52:34.755Z,98761.52
2018-09-19T08:55:03.431Z,98757.61
2018-09-19T08:57:31.750Z,98760.67
2018-09-19T09:00:00.052Z,98758.08
2018-09-19T09:02:28.371Z,98758.23
2018-09-19T09:04:56.675Z,98756.24
2018-09-19T09:07:24.960Z,98752.46
2018-09-19T09:09:56.077Z,98755.79
2018-09-19T09:12:24.532Z,98754.11
2018-09-19T09:14:52.813Z,98756.11
2018-09-19T09:17:21.160Z,98753.61
2018-09-19T09:19:49.510Z,98755.60
2018-09-19T09:22:17.888Z,98766.62
2018-09-19T09:24:46.219Z,98759.20
2018-09-19T09:27:14.590Z,98757.20
2018-09-19T09:29:43.050Z,98751.26
2018-09-19T09:32:11.415Z,98752.42
2018-09-19T09:34:39.763Z,98747.20
2018-09-19T09:37:08.122Z,98748.40
2018-09-19T09:39:36.577Z,98754.52
2018-09-19T09:42:04.882Z,98746.14
2018-09-19T09:44:33.237Z,98746.59
2018-09-19T09:47:01.524Z,98741.17
2018-09-19T09:49:29.796Z,98741.95
2018-09-19T09:51:58.135Z,98748.83
2018-09-19T09:54:26.403Z,98741.59
2018-09-19T09:56:54.722Z,98746.69
2018-09-19T09:59:23.092Z,98742.84
2018-09-19T10:01:51.383Z,98743.19
2018-09-19T10:04:19.696Z,98738.09
2018-09-19T10:06:48.012Z,98744.25
2018-09-19T10:09:16.301Z,98743.73
2018-09-19T10:11:44.590Z,98746.80
2018-09-19T10:14:12.893Z,98736.80
2018-09-19T10:16:41.363Z,98733.31
2018-09-19T10:19:09.672Z,98731.88
2018-09-19T10:21:37.997Z,98732.53
2018-09-19T10:24:06.202Z,98724.12
2018-09-19T10:26:34.473Z,98722.63
2018-09-19T10:29:02.806Z,98715.34
2018-09-19T10:31:31.119Z,98717.12
2018-09-19T10:33:59.402Z,98718.92
2018-09-19T10:36:27.733Z,98719.00
2018-09-19T10:38:56.629Z,98720.73
2018-09-19T10:41:24.928Z,98709.88
2018-09-19T10:43:53.272Z,98711.53
2018-09-19T10:46:21.497Z,98709.72
2018-09-19T10:48:49.895Z,98710.26
2018-09-19T10:51:18.210Z,98702.52
2018-09-19T10:53:46.482Z,98707.70
2018-09-19T10:56:14.768Z,98709.56
2018-09-19T10:58:43.012Z,98708.26
2018-09-19T11:01:11.526Z,98712.76
2018-09-19T11:03:39.940Z,98704.19
2018-09-19T11:06:08.331Z,98704.23
2018-09-19T11:08:36.664Z,98705.59
2018-09-19T11:11:05.073Z,98710.18
2018-09-19T11:13:33.451Z,98707.27
2018-09-19T11:16:01.715Z,98708.27
2018-09-19T11:18:30.021Z,98706.03
2018-09-19T11:20:58.308Z,98704.95
2018-09-19T11:23:26.735Z,98699.94
2018-09-19T11:25:55.023Z,98698.14
2018-09-19T11:28:23.496Z,98689.68
2018-09-19T11:30:51.831Z,98686.23
2018-09-19T11:33:20.317Z,98681.28
2018-09-19T11:35:48.678Z,98673.70
2018-09-19T11:38:17.196Z,98679.77
2018-09-19T11:40:45.606Z,98675.92
2018-09-19T11:43:14.028Z,98673.17
2018-09-19T11:45:42.381Z,98670.23
2018-09-19T11:48:10.863Z,98663.77
2018-09-19T11:50:39.214Z,98661.48
2018-09-19T11:53:11.688Z,98669.30
2018-09-19T11:55:40.192Z,98672.77
2018-09-19T11:58:08.518Z,98673.30
2018-09-19T12:00:36.906Z,98668.62
2018-09-19T12:03:08.308Z,98664.12
2018-09-19T12:05:36.531Z,98658.75
2018-09-19T12:08:04.988Z,98661.10
2018-09-19T12:10:33.643Z,98669.02
2018-09-19T12:13:02.296Z,98661.72
2018-09-19T12:15:30.562Z,98668.62
2018-09-19T12:17:59.013Z,98657.25
2018-09-19T12:20:27.321Z,98659.88
2018-09-19T12:22:55.605Z,98648.76
2018-09-19T12:25:23.943Z,98650.14
2018-09-19T12:27:52.349Z,98646.11
2018-09-19T12:30:20.666Z,98649.56
2018-09-19T12:32:49.065Z,98650.72
2018-09-19T12:35:17.353Z,98647.92
2018-09-19T12:37:45.822Z,98645.05
2018-09-19T12:40:14.196Z,98642.98
2018-09-19T12:42:42.537Z,98642.91
2018-09-19T12:45:10.844Z,98632.52
2018-09-19T12:47:39.160Z,98640.25
2018-09-19T12:50:07.409Z,98630.98
2018-09-19T12:52:35.995Z,98631.95
2018-09-19T12:55:04.291Z,98629.87
2018-09-19T12:57:32.619Z,98626.92
2018-09-19T13:00:01.378Z,98620.39
2018-09-19T13:02:29.724Z,98622.34
2018-09-19T13:04:57.978Z,98618.34
2018-09-19T13:07:26.243Z,98620.84
2018-09-19T13:09:54.550Z,98609.78
2018-09-19T13:12:22.943Z,98615.25
2018-09-19T13:14:51.283Z,98614.59
2018-09-19T13:17:19.564Z,98610.33
2018-09-19T13:19:47.839Z,98611.13
2018-09-19T13:22:16.048Z,98610.17
2018-09-19T13:24:44.271Z,98610.55
2018-09-19T13:27:12.702Z,98604.59
2018-09-19T13:29:41.033Z,98604.50
2018-09-19T13:32:09.300Z,98600.73
2018-09-19T13:34:37.532Z,98591.66
2018-09-19T13:37:05.873Z,98593.60
2018-09-19T13:39:34.164Z,98596.25
2018-09-19T13:42:02.421Z,98591.94
2018-09-19T13:44:30.698Z,98591.11
2018-09-19T13:46:58.976Z,98592.11
2018-09-19T13:49:31.692Z,98585.59
2018-09-19T13:52:00.054Z,98578.66
2018-09-19T13:54:28.331Z,98581.36
2018-09-19T13:56:56.628Z,98581.89
2018-09-19T13:59:24.941Z,98580.66
2018-09-19T14:01:53.274Z,98570.67
2018-09-19T14:04:21.709Z,98580.09
2018-09-19T14:06:49.913Z,98580.95
2018-09-19T14:09:18.184Z,98575.82
2018-09-19T14:11:46.510Z,98578.51
2018-09-19T14:14:14.782Z,98580.95
2018-09-19T14:16:43.163Z,98575.42
2018-09-19T14:19:12.534Z,98576.95
2018-09-19T14:21:40.769Z,98580.91
2018-09-19T14:24:09.013Z,98570.00
2018-09-19T14:26:37.346Z,98576.46
2018-09-19T14:29:06.547Z,98567.14
2018-09-19T14:31:34.811Z,98569.91
2018-09-19T14:34:03.185Z,98568.22
2018-09-19T14:36:31.598Z,98563.06
2018-09-19T14:38:59.916Z,98561.88
2018-09-19T14:41:28.266Z,98555.66
2018-09-19T14:43:56.586Z,98554.55
2018-09-19T14:46:24.883Z,98558.53
2018-09-19T14:48:53.356Z,98555.34
2018-09-19T14:51:21.631Z,98553.94
2018-09-19T14:53:49.930Z,98553.59
2018-09-19T14:56:18.259Z,98549.87
2018-09-19T14:58:46.747Z,98543.09
2018-09-19T15:01:15.056Z,98537.46
2018-09-19T15:03:43.398Z,98536.53
2018-09-19T15:06:11.691Z,98539.13
2018-09-19T15:08:40.100Z,98536.13
2018-09-19T15:11:08.581Z,98532.02
2018-09-19T15:13:37.032Z,98533.16
2018-09-19T15:16:05.280Z,98538.00
2018-09-19T15:18:33.795Z,98536.05
2018-09-19T15:21:02.060Z,98526.59
2018-09-19T15:23:30.353Z,98525.28
2018-09-19T15:25:58.811Z,98514.14
2018-09-19T15:28:27.113Z,98520.66
2018-09-19T15:30:55.331Z,98528.66
2018-09-19T15:33:23.570Z,98528.02
2018-09-19T15:35:52.043Z,98539.69
2018-09-19T15:38:20.503Z,98526.96
2018-09-19T15:40:48.760Z,98531.91
2018-09-19T15:43:17.020Z,98528.24
2018-09-19T15:45:45.610Z,98529.41
2018-09-19T15:48:14.886Z,98526.84
2018-09-19T15:50:43.227Z,98530.11
2018-09-19T15:53:11.600Z,98522.84
2018-09-19T15:55:39.974Z,98528.38
2018-09-19T15:58:08.218Z,98534.66
2018-09-19T16:00:36.569Z,98533.69
2018-09-19T16:03:04.910Z,98536.66
2018-09-19T16:05:33.381Z,98531.98
2018-09-19T16:08:01.661Z,98532.70
2018-09-19T16:10:30.033Z,98533.11
2018-09-19T16:12:58.369Z,98530.22
2018-09-19T16:15:26.710Z,98537.30
2018-09-19T16:17:55.051Z,98532.17
2018-09-19T16:20:23.366Z,98528.54
2018-09-19T16:22:51.707Z,98535.54
2018-09-19T16:25:20.116Z,98540.29
2018-09-19T16:27:48.428Z,98537.19
2018-09-19T16:30:16.835Z,98545.17
2018-09-19T16:32:45.157Z,98549.94
2018-09-19T16:35:13.636Z,98543.63
2018-09-19T16:37:41.881Z,98541.41
2018-09-19T16:40:10.145Z,98541.16
2018-09-19T16:42:38.484Z,98540.63
2018-09-19T16:45:06.908Z,98546.94
2018-09-19T16:47:35.379Z,98547.50
2018-09-19T16:50:03.732Z,98548.73
2018-09-19T16:52:32.228Z,98550.72
2018-09-19T16:55:00.604Z,98552.63
2018-09-19T16:57:29.970Z,98550.45
2018-09-19T16:59:58.570Z,98549.62
2018-09-19T17:02:26.903Z,98554.66
2018-09-19T17:04:55.198Z,98555.97
2018-09-19T17:07:23.572Z,98548.42
2018-09-19T17:09:52.570Z,98553.80
2018-09-19T17:12:21.083Z,98553.60
2018-09-19T17:14:49.400Z,98561.16
2018-09-19T17:17:17.847Z,98556.80
2018-09-19T17:19:46.430Z,98558.77
2018-09-19T17:22:14.751Z,98558.72
2018-09-19T17:24:43.012Z,98559.56
2018-09-19T17:27:11.726Z,98561.90
2018-09-19T17:29:40.050Z,98565.36
2018-09-19T17:32:08.679Z,98570.52
2018-09-19T17:34:37.216Z,98573.25
2018-09-19T17:37:06.591Z,98569.08
2018-09-19T17:39:34.910Z,98572.38
2018-09-19T17:42:03.264Z,98575.65
2018-09-19T17:44:31.625Z,98574.74
2018-09-19T17:46:59.945Z,98576.55
2018-09-19T17:49:28.266Z,98575.43
2018-09-19T17:51:56.751Z,98576.20
2018-09-19T17:54:25.233Z,98574.44
2018-09-19T17:56:53.531Z,98574.30
2018-09-19T17:59:21.921Z,98582.55
2018-09-19T18:01:51.364Z,98590.56
2018-09-19T18:04:19.891Z,98590.67
2018-09-19T18:06:48.376Z,98590.27
2018-09-19T18:09:16.915Z,98593.19
2018-09-19T18:11:45.217Z,98596.95
2018-09-19T18:14:13.632Z,98599.72
2018-09-19T18:16:41.965Z,98596.44
2018-09-19T18:19:10.256Z,98601.53
2018-09-19T18:21:38.623Z,98608.67
2018-09-19T18:24:06.927Z,98604.09
2018-09-19T18:26:36.204Z,98604.05
2018-09-19T18:29:04.636Z,98601.55
2018-09-19T18:31:33.028Z,98603.20
2018-09-19T18:34:01.409Z,98605.75
2018-09-19T18:36:29.844Z,98601.86
2018-09-19T18:38:58.223Z,98608.77
2018-09-19T18:41:26.577Z,98608.73
2018-09-19T18:43:54.805Z,98608.77
2018-09-19T18:46:23.100Z,98616.09
2018-09-19T18:48:51.568Z,98616.30
2018-09-19T18:51:19.860Z,98619.90
2018-09-19T18:53:48.212Z,98620.04
2018-09-19T18:56:16.536Z,98619.71
2018-09-19T18:58:44.912Z,98618.88
2018-09-19T19:01:13.311Z,98616.23
2018-09-19T19:03:41.598Z,98616.89
2018-09-19T19:06:10.081Z,98621.98
2018-09-19T19:08:38.399Z,98630.45
2018-09-19T19:11:07.033Z,98633.47
2018-09-19T19:13:35.489Z,98635.22
2018-09-19T19:16:03.743Z,98630.13
2018-09-19T19:18:32.089Z,98625.65
2018-09-19T19:21:00.478Z,98629.05
2018-09-19T19:23:28.929Z,98629.13
2018-09-19T19:25:57.746Z,98625.44
2018-09-19T19:28:27.046Z,98629.15
2018-09-19T19:30:55.733Z,98633.86
2018-09-19T19:33:24.159Z,98629.34
2018-09-19T19:35:52.586Z,98628.81
2018-09-19T19:38:21.036Z,98631.17
2018-09-19T19:40:49.887Z,98638.25
2018-09-19T19:43:18.953Z,98632.14
2018-09-19T19:45:48.092Z,98627.92
2018-09-19T19:48:16.531Z,98636.30
2018-09-19T19:50:44.959Z,98636.27
2018-09-19T19:53:13.542Z,98644.30
2018-09-19T19:55:41.919Z,98641.70
2018-09-19T19:58:10.522Z,98641.16
2018-09-19T20:00:38.910Z,98647.88
2018-09-19T20:03:07.237Z,98640.59
2018-09-19T20:05:36.127Z,98642.36
2018-09-19T20:08:04.468Z,98643.41
2018-09-19T20:10:32.962Z,98642.72
2018-09-19T20:13:01.358Z,98644.08
2018-09-19T20:15:29.665Z,98642.41
2018-09-19T20:17:58.085Z,98641.31
2018-09-19T20:20:26.578Z,98643.86
2018-09-19T20:22:54.969Z,98643.28
2018-09-19T20:25:23.300Z,98641.27
2018-09-19T20:27:51.715Z,98642.62
2018-09-19T20:30:20.130Z,98643.92
2018-09-19T20:32:48.527Z,98639.53
2018-09-19T20:35:16.830Z,98647.52
2018-09-19T20:37:45.118Z,98641.91
2018-09-19T20:40:13.495Z,98645.73
2018-09-19T20:42:41.899Z,98638.02
2018-09-19T20:45:10.140Z,98644.08
2018-09-19T20:47:38.577Z,98645.20
2018-09-19T20:50:07.204Z,98645.96
2018-09-19T20:52:35.609Z,98631.08
2018-09-19T20:55:03.900Z,98640.23
2018-09-19T20:57:32.221Z,98641.55
2018-09-19T21:00:00.645Z,98647.71
2018-09-19T21:02:29.153Z,98641.88
2018-09-19T21:04:57.544Z,98643.64
2018-09-19T21:07:27.025Z,98644.72
2018-09-19T21:09:55.364Z,98648.00
2018-09-19T21:12:23.956Z,98651.63
2018-09-19T21:14:52.267Z,98658.81
2018-09-19T21:17:20.548Z,98661.05
2018-09-19T21:19:48.820Z,98656.61
2018-09-19T21:22:17.378Z,98660.16
2018-09-19T21:24:45.607Z,98663.73
2018-09-19T21:27:14.038Z,98662.58
2018-09-19T21:29:42.299Z,98665.89
2018-09-19T21:32:11.136Z,98668.02
2018-09-19T21:34:39.466Z,98672.48
2018-09-19T21:37:08.263Z,98676.59
2018-09-19T21:39:36.750Z,98675.30
2018-09-19T21:42:05.295Z,98677.22
2018-09-19T21:44:33.787Z,98681.19
2018-09-19T21:47:02.157Z,98674.30
2018-09-19T21:49:30.553Z,98682.45
2018-09-19T21:51:58.865Z,98673.92
2018-09-19T21:54:27.336Z,98674.26
2018-09-19T21:56:55.721Z,98681.29
2018-09-19T21:59:23.955Z,98673.69
2018-09-19T22:01:59.478Z,98674.70
2018-09-19T22:04:27.934Z,98671.14
2018-09-19T22:06:56.233Z,98670.38
2018-09-19T22:09:24.492Z,98670.55
2018-09-19T22:11:53.010Z,98668.46
2018-09-19T22:14:21.778Z,98670.49
2018-09-19T22:16:51.208Z,98670.94
2018-09-19T22:19:19.746Z,98671.62
2018-09-19T22:21:48.902Z,98664.02
2018-09-19T22:24:17.178Z,98667.40
2018-09-19T22:26:45.414Z,98666.05
2018-09-19T22:29:13.764Z,98670.81
2018-09-19T22:31:42.065Z,98666.13
2018-09-19T22:34:10.633Z,98663.11
2018-09-19T22:36:45.837Z,98662.28
2018-09-19T22:39:16.547Z,98663.08
2018-09-19T22:41:45.305Z,98665.63
2018-09-19T22:44:13.892Z,98661.64
2018-09-19T22:46:42.204Z,98660.20
2018-09-19T22:49:10.492Z,98664.03
2018-09-19T22:51:38.805Z,98660.52
2018-09-19T22:54:07.192Z,98659.56
2018-09-19T22:56:35.480Z,98660.52
2018-09-19T22:59:03.827Z,98657.70
2018-09-19T23:01:32.250Z,98656.47
2018-09-19T23:04:00.566Z,98656.14
2018-09-19T23:06:28.916Z,98649.52
2018-09-19T23:08:57.259Z,98658.83
2018-09-19T23:11:26.559Z,98656.75
2018-09-19T23:13:54.867Z,98653.73
2018-09-19T23:16:23.123Z,98649.20
2018-09-19T23:18:51.433Z,98655.47
2018-09-19T23:21:19.903Z,98665.48
2018-09-19T23:23:48.178Z,98673.64
2018-09-19T23:26:16.467Z,98678.11
2018-09-19T23:28:44.804Z,98677.22
2018-09-19T23:31:13.139Z,98667.19
2018-09-19T23:33:41.471Z,98675.34
2018-09-19T23:36:09.751Z,98669.00
2018-09-19T23:38:38.141Z,98669.85
2018-09-19T23:41:06.583Z,98667.21
2018-09-19T23:43:35.016Z,98658.23
2018-09-19T23:46:03.297Z,98660.92
2018-09-19T23:48:31.789Z,98658.77
2018-09-19T23:51:00.193Z,98658.16
2018-09-19T23:53:28.620Z,98655.86
2018-09-19T23:55:57.039Z,98657.99
2018-09-19T23:58:25.542Z,98660.67
